Greenwood, Indiana
Current Conditions -  °F | °C
As of 3:54 PM on Saturday 25 Oct 2014 (Local Time) from KIND Reporting Station
Broken Clouds Broken Clouds  
Wind Chill: 75°   Ceiling: 25000
Heat Index: 75°   Visibility: 10mi
Dew Point: 48°   Wind: 18mph
Humidity: 38%   Direction: 280°W
Pressure: 29.93"   Gusts: NA
Location:  39.61°N, 86.11°W
Report Text: KIND 251954Z 28016KT 10SM BKN250 24/09 A2993 RMK AO2 SLP132 T02390089
Loading
Personal Weather Stations






























Interactive Weather Map
Tropical Storm Tracking
New forecast layout! Learn more

10-Day Weather Forecast

Advertisements
Track Severe Weather on mobile